Yampa, Colorado
Current Conditions -  °F | °C
As of 7:35 AM on Friday 28 Nov 2014 (Local Time) from KSBS Reporting Station
Overcast Overcast  
Wind Chill: 15°   Ceiling: 100
Heat Index: 15°   Visibility: 0mi
Dew Point: 14°   Wind: 0mph
Humidity: 93%   Direction: NA
Pressure: 30.18"   Gusts: NA
Location:  40.15°N, 106.91°W
Report Text: KSBS 281435Z AUTO 00000KT M1/4SM OVC001 M09/M10 A3018 RMK AO1 T10921102
Loading
Personal Weather Stations






























Interactive Weather Map New forecast layout! Learn more

10-Day Weather Forecast

Advertisements
Track Severe Weather on mobile